Weather at Mc David Pontiac Company Heliport

Public forecast

Using degrees Fahrenheit for public forecast. Weather courtesy of forecast.io.

Closest aviation weather report (METAR) to Mc David Pontiac Company Heliport

Closest report is Dallas Fort Worth International Airport, 4.1 nm (7.6 km) NNW.

2024/06/22 04:53 (retrieved 54 minutes ago)

KDFW 220453Z 15005KT 10SM FEW250 28/20 A3007 RMK AO2 SLP174 T02830200

Closest aviation forecast (TAF) to Mc David Pontiac Company Heliport

Forecast is more than 12 hours old.

Closest forecast is NAS Fort Worth JRB / Carswell Field, 22.6 nm (41.9 km) W.

2024/06/20 10:59 Ammendment (retrieved 2 days ago)

TAF AMD KNFW 2010/2107 10009KT 9999 SCT020 BKN045 BKN250 QNH3008INS TEMPO 2011/2015 BKN020 BKN045 OVC250 FM201500 10012G18KT 9999 FEW045 SCT180 BKN250 QNH3002INS FM210400 10009KT 9999 SCT022 BKN060 OVC250 QNH3006INS TX33/2021Z TN26/2010Z FN20046